createdAt,value
2022-08-18T00:02:30.106Z,7.88
2022-08-18T00:04:57.860Z,7.88
2022-08-18T00:07:28.377Z,7.70
2022-08-18T00:09:58.709Z,7.13
2022-08-18T00:12:39.190Z,7.55
2022-08-18T00:15:08.946Z,7.80
2022-08-18T00:17:38.925Z,8.43
2022-08-18T00:20:09.010Z,7.45
2022-08-18T00:22:36.649Z,8.05
2022-08-18T00:25:04.414Z,8.48
2022-08-18T00:27:31.780Z,8.10
2022-08-18T00:30:01.223Z,7.45
2022-08-18T00:32:34.627Z,8.13
2022-08-18T00:35:26.722Z,7.85
2022-08-18T00:37:58.180Z,8.00
2022-08-18T00:40:32.355Z,7.38
2022-08-18T00:43:05.260Z,7.95
2022-08-18T00:45:36.510Z,8.80
2022-08-18T00:48:11.291Z,8.23
2022-08-18T00:50:57.653Z,7.43
2022-08-18T00:53:47.943Z,8.10
2022-08-18T00:56:24.680Z,8.02
2022-08-18T00:59:16.356Z,7.78
2022-08-18T01:01:44.663Z,7.57
2022-08-18T01:04:24.478Z,8.32
2022-08-18T01:06:56.635Z,8.35
2022-08-18T01:09:26.115Z,8.10
2022-08-18T01:11:56.404Z,8.63
2022-08-18T01:14:23.962Z,8.63
2022-08-18T01:17:10.023Z,8.07
2022-08-18T01:19:55.818Z,8.60
2022-08-18T01:23:04.614Z,9.07
2022-08-18T01:25:51.059Z,8.90
2022-08-18T01:28:20.699Z,8.43
2022-08-18T01:33:17.394Z,8.25
2022-08-18T01:35:49.477Z,8.18
2022-08-18T01:38:19.082Z,7.97
2022-08-18T01:43:35.510Z,8.48
2022-08-18T01:46:04.227Z,8.25
2022-08-18T01:48:37.699Z,8.37
2022-08-18T01:51:07.124Z,9.00
2022-08-18T01:53:34.518Z,8.30
2022-08-18T01:56:04.371Z,9.23
2022-08-18T01:58:35.904Z,8.70
2022-08-18T02:01:03.815Z,8.43
2022-08-18T02:03:36.871Z,8.68
2022-08-18T02:06:08.362Z,9.02
2022-08-18T02:08:36.767Z,8.60
2022-08-18T02:11:03.599Z,9.52
2022-08-18T02:13:31.407Z,8.88
2022-08-18T02:15:58.132Z,8.80
2022-08-18T02:18:47.877Z,9.32
2022-08-18T02:21:20.388Z,9.10
2022-08-18T02:23:52.782Z,9.10
2022-08-18T02:26:20.960Z,9.23
2022-08-18T02:28:49.787Z,9.60
2022-08-18T02:31:20.320Z,9.20
2022-08-18T02:33:51.844Z,9.45
2022-08-18T02:36:20.413Z,8.90
2022-08-18T02:38:59.254Z,8.80
2022-08-18T02:43:57.967Z,9.40
2022-08-18T02:46:30.139Z,10.10
2022-08-18T02:48:59.363Z,9.50
2022-08-18T02:51:26.444Z,9.90
2022-08-18T02:53:54.279Z,9.35
2022-08-18T02:56:40.327Z,10.30
2022-08-18T02:59:12.433Z,9.95
2022-08-18T03:01:46.989Z,11.25
2022-08-18T03:04:21.116Z,12.10
2022-08-18T03:06:49.822Z,10.77
2022-08-18T03:09:18.771Z,10.85
2022-08-18T03:11:46.867Z,10.48
2022-08-18T03:14:15.063Z,11.10
2022-08-18T03:16:53.781Z,11.07
2022-08-18T03:19:24.172Z,10.15
2022-08-18T03:21:50.986Z,11.00
2022-08-18T03:24:22.960Z,10.88
2022-08-18T03:26:52.015Z,11.30
2022-08-18T03:29:19.813Z,10.85
2022-08-18T03:31:49.535Z,10.05
2022-08-18T03:34:19.993Z,11.27
2022-08-18T03:36:50.934Z,10.95
2022-08-18T03:39:20.345Z,10.93
2022-08-18T03:41:58.122Z,11.18
2022-08-18T03:44:28.056Z,10.93
2022-08-18T03:46:54.994Z,11.00
2022-08-18T03:49:22.335Z,10.40
2022-08-18T03:51:49.309Z,10.20
2022-08-18T03:54:17.911Z,11.20
2022-08-18T03:56:49.427Z,10.95
2022-08-18T03:59:22.005Z,10.85
2022-08-18T04:01:50.745Z,10.73
2022-08-18T04:04:21.455Z,10.83
2022-08-18T04:06:51.356Z,11.40
2022-08-18T04:09:21.902Z,11.65
2022-08-18T04:11:49.062Z,12.27
2022-08-18T04:14:18.741Z,12.50
2022-08-18T04:16:46.106Z,11.75
2022-08-18T04:19:27.202Z,12.65
2022-08-18T04:21:59.742Z,13.00
2022-08-18T04:24:31.941Z,12.73
2022-08-18T04:27:01.582Z,12.00
2022-08-18T04:29:28.889Z,12.65
2022-08-18T04:32:00.841Z,12.15
2022-08-18T04:34:30.034Z,12.32
2022-08-18T04:36:56.810Z,13.02
2022-08-18T04:39:24.005Z,11.57
2022-08-18T04:41:53.542Z,12.32
2022-08-18T04:46:54.145Z,11.50
2022-08-18T04:49:25.959Z,14.07
2022-08-18T04:52:36.099Z,13.90
2022-08-18T04:55:02.845Z,14.18
2022-08-18T04:57:34.736Z,13.52
2022-08-18T05:00:02.984Z,14.32
2022-08-18T05:02:30.113Z,13.82
2022-08-18T05:04:56.856Z,13.05
2022-08-18T05:07:26.375Z,14.13
2022-08-18T05:09:57.059Z,14.18
2022-08-18T05:12:26.798Z,14.50
2022-08-18T05:14:56.783Z,13.68
2022-08-18T05:17:30.006Z,15.05
2022-08-18T05:20:01.410Z,14.80
2022-08-18T05:22:30.849Z,15.43
2022-08-18T05:27:25.295Z,17.63
2022-08-18T05:29:55.398Z,18.77
2022-08-18T05:32:36.968Z,16.00
2022-08-18T05:35:18.275Z,16.17
2022-08-18T05:38:16.364Z,15.20
2022-08-18T05:40:46.062Z,14.73
2022-08-18T05:43:16.417Z,16.52
2022-08-18T05:45:43.342Z,14.93
2022-08-18T05:48:14.243Z,15.30
2022-08-18T05:50:41.090Z,15.65
2022-08-18T05:53:14.607Z,16.50
2022-08-18T05:56:10.894Z,18.77
2022-08-18T05:58:44.115Z,22.58
2022-08-18T06:01:26.017Z,24.88
2022-08-18T06:04:00.998Z,21.20
2022-08-18T06:06:32.089Z,22.38
2022-08-18T06:09:15.057Z,21.80
2022-08-18T06:11:42.383Z,24.33
2022-08-18T06:14:13.321Z,25.20
2022-08-18T06:16:42.217Z,26.08
2022-08-18T06:19:56.057Z,26.60
2022-08-18T06:22:52.067Z,28.52
2022-08-18T06:25:41.464Z,30.55
2022-08-18T06:28:14.137Z,29.65
2022-08-18T06:30:56.950Z,29.15
2022-08-18T06:33:31.900Z,29.33
2022-08-18T06:36:21.745Z,30.95
2022-08-18T06:38:48.726Z,29.17
2022-08-18T06:41:41.963Z,30.15
2022-08-18T06:44:13.404Z,27.85
2022-08-18T06:47:05.115Z,26.58
2022-08-18T06:50:05.902Z,25.80
2022-08-18T06:52:57.509Z,24.10
2022-08-18T06:55:33.571Z,27.10
2022-08-18T06:58:19.493Z,27.90
2022-08-18T07:00:55.241Z,28.52
2022-08-18T07:03:40.287Z,27.95
2022-08-18T07:06:23.811Z,30.50
2022-08-18T07:08:56.089Z,31.58
2022-08-18T07:11:25.643Z,33.92
2022-08-18T07:16:57.688Z,32.28
2022-08-18T07:19:29.167Z,35.42
2022-08-18T07:22:17.076Z,35.42
2022-08-18T07:24:46.774Z,36.13
2022-08-18T07:30:08.301Z,36.78
2022-08-18T07:33:02.069Z,37.42
2022-08-18T07:35:44.848Z,37.03
2022-08-18T07:38:54.118Z,32.72
2022-08-18T07:41:26.692Z,35.55
2022-08-18T07:44:40.210Z,36.17
2022-08-18T07:47:23.603Z,37.38
2022-08-18T07:50:15.542Z,35.92
2022-08-18T07:52:49.776Z,35.13
2022-08-18T07:55:30.930Z,37.00
2022-08-18T07:58:34.688Z,39.05
2022-08-18T08:01:04.680Z,31.85
2022-08-18T08:03:43.450Z,34.40
2022-08-18T08:06:16.086Z,33.17
2022-08-18T08:08:42.763Z,32.25
2022-08-18T08:11:46.825Z,35.50
2022-08-18T08:14:43.220Z,33.50
2022-08-18T08:17:37.691Z,35.75
2022-08-18T08:20:42.257Z,33.75
2022-08-18T08:23:17.804Z,31.00
2022-08-18T08:25:55.846Z,32.00
2022-08-18T08:28:44.245Z,33.05
2022-08-18T08:31:36.680Z,31.55
2022-08-18T08:34:27.133Z,33.15
2022-08-18T08:37:06.281Z,32.60
2022-08-18T08:39:46.048Z,34.80
2022-08-18T08:42:40.965Z,33.67
2022-08-18T08:45:21.165Z,37.15
2022-08-18T08:47:50.785Z,31.83
2022-08-18T08:50:24.084Z,30.45
2022-08-18T08:53:14.013Z,33.53
2022-08-18T08:55:53.353Z,37.97
2022-08-18T08:58:34.267Z,35.85
2022-08-18T09:01:02.194Z,34.17
2022-08-18T09:03:49.324Z,31.65
2022-08-18T09:06:45.164Z,33.60
2022-08-18T09:09:45.127Z,34.13
2022-08-18T09:12:25.488Z,34.08
2022-08-18T09:15:16.861Z,32.35
2022-08-18T09:17:50.701Z,29.73
2022-08-18T09:20:49.186Z,29.90
2022-08-18T09:23:32.117Z,28.33
2022-08-18T09:26:20.230Z,26.58
2022-08-18T09:29:13.179Z,30.88
2022-08-18T09:31:44.033Z,30.95
2022-08-18T09:34:28.857Z,29.02
2022-08-18T09:37:08.923Z,28.60
2022-08-18T09:40:10.845Z,29.30
2022-08-18T09:42:49.913Z,26.33
2022-08-18T09:45:34.331Z,26.52
2022-08-18T09:48:13.915Z,27.08
2022-08-18T09:50:52.350Z,26.92
2022-08-18T09:53:33.303Z,22.98
2022-08-18T09:56:05.327Z,24.17
2022-08-18T09:58:47.210Z,28.25
2022-08-18T10:01:38.131Z,26.83
2022-08-18T10:04:15.482Z,25.60
2022-08-18T10:06:48.423Z,27.92
2022-08-18T10:09:37.462Z,32.70
2022-08-18T10:12:28.778Z,29.58
2022-08-18T10:15:08.753Z,27.35
2022-08-18T10:17:54.839Z,25.42
2022-08-18T10:20:37.541Z,29.20
2022-08-18T10:23:07.726Z,28.45
2022-08-18T10:25:46.422Z,32.13
2022-08-18T10:28:53.283Z,28.35
2022-08-18T10:31:24.116Z,24.10
2022-08-18T10:34:19.041Z,28.13
2022-08-18T10:36:48.631Z,29.92
2022-08-18T10:39:27.113Z,31.55
2022-08-18T10:42:08.395Z,26.75
2022-08-18T10:44:43.828Z,26.75
2022-08-18T10:47:33.432Z,25.95
2022-08-18T10:50:06.876Z,28.60
2022-08-18T10:53:35.160Z,26.95
2022-08-18T10:56:04.574Z,25.38
2022-08-18T10:58:43.358Z,25.50
2022-08-18T11:01:26.839Z,25.27
2022-08-18T11:04:14.000Z,26.65
2022-08-18T11:06:47.460Z,30.00
2022-08-18T11:09:26.972Z,27.65
2022-08-18T11:11:59.106Z,29.23
2022-08-18T11:14:58.437Z,27.30
2022-08-18T11:17:53.084Z,30.90
2022-08-18T11:20:24.484Z,30.63
2022-08-18T11:22:56.384Z,31.05
2022-08-18T11:25:29.092Z,27.63
2022-08-18T11:27:59.693Z,29.50
2022-08-18T11:33:24.439Z,29.88
2022-08-18T11:36:01.391Z,30.63
2022-08-18T11:38:31.811Z,31.55
2022-08-18T11:41:24.259Z,32.33
2022-08-18T11:43:57.842Z,32.10
2022-08-18T11:46:32.085Z,32.20
2022-08-18T11:49:01.457Z,30.85
2022-08-18T11:51:32.762Z,29.90
2022-08-18T11:54:19.003Z,29.52
2022-08-18T11:56:48.081Z,31.17
2022-08-18T12:02:25.425Z,28.77
2022-08-18T12:05:03.248Z,27.17
2022-08-18T12:07:36.769Z,28.33
2022-08-18T12:10:28.756Z,26.43
2022-08-18T12:13:00.778Z,25.33
2022-08-18T12:15:43.936Z,26.00
2022-08-18T12:21:02.836Z,21.52
2022-08-18T12:23:38.667Z,27.90
2022-08-18T12:26:27.213Z,24.88
2022-08-18T12:29:04.114Z,24.73
2022-08-18T12:31:42.680Z,24.45
2022-08-18T12:34:15.953Z,23.52
2022-08-18T12:36:47.310Z,26.90
2022-08-18T12:39:18.837Z,25.92
2022-08-18T12:41:47.764Z,21.10
2022-08-18T12:44:15.288Z,24.60
2022-08-18T12:46:45.265Z,22.20
2022-08-18T12:49:17.468Z,19.95
2022-08-18T12:51:45.217Z,20.50
2022-08-18T12:54:18.500Z,20.42
2022-08-18T12:56:54.244Z,20.90
2022-08-18T12:59:21.154Z,18.60
2022-08-18T13:01:58.811Z,22.27
2022-08-18T13:04:27.322Z,20.73
2022-08-18T13:07:01.993Z,25.17
2022-08-18T13:09:52.882Z,22.33
2022-08-18T13:12:21.754Z,23.92
2022-08-18T13:14:51.231Z,21.60
2022-08-18T13:17:32.669Z,19.63
2022-08-18T13:20:06.626Z,19.63
2022-08-18T13:22:34.800Z,19.95
2022-08-18T13:25:07.206Z,17.35
2022-08-18T13:27:37.519Z,18.90
2022-08-18T13:30:29.252Z,20.67
2022-08-18T13:33:02.347Z,23.23
2022-08-18T13:35:38.175Z,20.10
2022-08-18T13:38:17.503Z,19.83
2022-08-18T13:40:54.268Z,22.73
2022-08-18T13:43:27.222Z,19.40
2022-08-18T13:45:56.528Z,20.10
2022-08-18T13:48:25.881Z,17.67
2022-08-18T13:53:24.664Z,20.65
2022-08-18T13:55:53.588Z,17.92
2022-08-18T13:58:21.266Z,18.63
2022-08-18T14:00:54.650Z,21.73
2022-08-18T14:03:42.510Z,18.83
2022-08-18T14:06:13.319Z,19.42
2022-08-18T14:08:40.614Z,20.67
2022-08-18T14:11:08.878Z,17.65
2022-08-18T14:13:43.520Z,16.95
2022-08-18T14:16:18.604Z,17.65
2022-08-18T14:19:09.772Z,16.38
2022-08-18T14:22:01.825Z,20.67
2022-08-18T14:24:49.342Z,17.00
2022-08-18T14:27:18.251Z,16.50
2022-08-18T14:29:48.838Z,18.10
2022-08-18T14:32:29.378Z,16.13
2022-08-18T14:35:32.843Z,18.92
2022-08-18T14:37:48.988Z,17.45
2022-08-18T14:40:17.227Z,18.98
2022-08-18T14:42:54.387Z,18.15
2022-08-18T14:45:27.777Z,17.00
2022-08-18T14:47:58.680Z,20.35
2022-08-18T14:50:26.738Z,18.98
2022-08-18T14:52:53.645Z,16.73
2022-08-18T14:55:20.608Z,20.77
2022-08-18T14:57:47.406Z,20.95
2022-08-18T15:00:21.068Z,21.42
2022-08-18T15:02:49.543Z,22.42
2022-08-18T15:05:19.430Z,17.80
2022-08-18T15:07:50.914Z,19.65
2022-08-18T15:10:19.865Z,17.67
2022-08-18T15:12:50.257Z,18.23
2022-08-18T15:15:22.598Z,19.73
2022-08-18T15:17:50.267Z,18.20
2022-08-18T15:20:28.754Z,16.08
2022-08-18T15:23:22.749Z,19.73
2022-08-18T15:25:52.395Z,18.25
2022-08-18T15:28:25.232Z,15.13
2022-08-18T15:33:42.291Z,16.40
2022-08-18T15:36:10.230Z,15.68
2022-08-18T15:38:38.351Z,14.20
2022-08-18T15:41:06.136Z,14.25
2022-08-18T15:43:46.058Z,13.70
2022-08-18T15:46:13.971Z,16.02
2022-08-18T15:48:44.090Z,13.60
2022-08-18T15:51:12.130Z,13.70
2022-08-18T15:53:44.462Z,11.27
2022-08-18T15:56:23.478Z,11.13
2022-08-18T15:58:53.193Z,11.40
2022-08-18T16:01:32.003Z,11.18
2022-08-18T16:04:01.176Z,10.48
2022-08-18T16:06:32.527Z,10.43
2022-08-18T16:09:00.426Z,9.95
2022-08-18T16:11:30.332Z,9.43
2022-08-18T16:14:01.453Z,9.15
2022-08-18T16:16:36.189Z,9.23
2022-08-18T16:19:05.801Z,9.15
2022-08-18T16:21:32.792Z,8.43
2022-08-18T16:24:01.878Z,7.63
2022-08-18T16:26:28.683Z,9.30
2022-08-18T16:29:01.801Z,7.15
2022-08-18T16:31:29.346Z,7.45
2022-08-18T16:34:00.922Z,7.53
2022-08-18T16:36:27.634Z,7.43
2022-08-18T16:38:58.379Z,6.95
2022-08-18T16:41:26.772Z,7.07
2022-08-18T16:43:56.326Z,7.60
2022-08-18T16:46:26.446Z,8.05
2022-08-18T16:48:54.195Z,7.47
2022-08-18T16:51:23.867Z,7.15
2022-08-18T16:53:52.974Z,7.43
2022-08-18T16:56:27.456Z,6.60
2022-08-18T16:59:13.811Z,8.15
2022-08-18T17:01:59.891Z,6.97
2022-08-18T17:04:33.343Z,6.72
2022-08-18T17:07:05.113Z,6.88
2022-08-18T17:09:33.742Z,7.70
2022-08-18T17:12:01.526Z,7.05
2022-08-18T17:14:32.410Z,6.78
2022-08-18T17:17:00.482Z,6.70
2022-08-18T17:19:33.968Z,6.63
2022-08-18T17:22:05.090Z,6.43
2022-08-18T17:24:34.137Z,6.57
2022-08-18T17:27:26.736Z,8.15
2022-08-18T17:30:00.567Z,7.78
2022-08-18T17:32:51.755Z,6.70
2022-08-18T17:35:28.585Z,7.97
2022-08-18T17:38:06.869Z,8.05
2022-08-18T17:40:42.902Z,8.68
2022-08-18T17:43:20.955Z,8.80
2022-08-18T17:45:58.168Z,8.18
2022-08-18T17:48:40.916Z,8.20
2022-08-18T17:51:33.874Z,9.15
2022-08-18T17:54:23.546Z,8.45
2022-08-18T17:56:55.114Z,9.30
2022-08-18T17:59:46.356Z,9.35
2022-08-18T18:02:29.194Z,9.13
2022-08-18T18:05:05.480Z,8.38
2022-08-18T18:07:39.552Z,8.50
2022-08-18T18:10:12.620Z,8.80
2022-08-18T18:12:39.525Z,8.73
2022-08-18T18:15:12.111Z,8.10
2022-08-18T18:17:41.509Z,8.13
2022-08-18T18:22:44.368Z,8.20
2022-08-18T18:25:30.263Z,7.68
2022-08-18T18:28:01.615Z,8.60
2022-08-18T18:30:32.732Z,8.38
2022-08-18T18:33:04.440Z,8.43
2022-08-18T18:35:53.993Z,8.80
2022-08-18T18:38:31.902Z,8.85
2022-08-18T18:41:18.026Z,7.85
2022-08-18T18:43:48.922Z,7.65
2022-08-18T18:46:18.989Z,8.73
2022-08-18T18:48:52.029Z,9.50
2022-08-18T18:51:43.770Z,8.88
2022-08-18T18:54:20.744Z,8.00
2022-08-18T18:56:56.506Z,8.38
2022-08-18T18:59:50.760Z,8.75
2022-08-18T19:02:34.916Z,8.68
2022-08-18T19:05:23.268Z,8.45
2022-08-18T19:08:05.515Z,8.38
2022-08-18T19:10:37.658Z,8.30
2022-08-18T19:13:32.402Z,9.52
2022-08-18T19:16:28.447Z,9.00
2022-08-18T19:19:35.462Z,8.55
2022-08-18T19:22:08.839Z,8.65
2022-08-18T19:24:42.208Z,8.90
2022-08-18T19:27:24.438Z,9.85
2022-08-18T19:29:54.509Z,9.18
2022-08-18T19:32:36.061Z,9.20
2022-08-18T19:35:12.334Z,9.30
2022-08-18T19:37:58.207Z,8.15
2022-08-18T19:40:33.756Z,8.85
2022-08-18T19:43:04.457Z,8.20
2022-08-18T19:45:50.107Z,8.65
2022-08-18T19:48:46.390Z,7.95
2022-08-18T19:51:38.569Z,7.65
2022-08-18T19:54:13.286Z,7.72
2022-08-18T19:57:12.084Z,7.90
2022-08-18T19:59:48.062Z,7.75
2022-08-18T20:02:40.250Z,7.60
2022-08-18T20:05:31.592Z,7.30
2022-08-18T20:08:26.822Z,7.43
2022-08-18T20:11:02.211Z,7.70
2022-08-18T20:13:36.693Z,7.32
2022-08-18T20:16:09.078Z,7.30
2022-08-18T20:18:38.296Z,7.13
2022-08-18T20:21:20.087Z,7.18
2022-08-18T20:24:00.537Z,7.78
2022-08-18T20:26:39.122Z,7.40
2022-08-18T20:29:11.490Z,7.00
2022-08-18T20:31:53.260Z,7.40
2022-08-18T20:34:25.920Z,8.00
2022-08-18T20:36:58.866Z,8.02
2022-08-18T20:39:44.336Z,7.82
2022-08-18T20:42:24.505Z,8.60
2022-08-18T20:44:58.381Z,8.23
2022-08-18T20:47:33.427Z,8.77
2022-08-18T20:50:33.953Z,8.40
2022-08-18T20:53:18.754Z,8.77
2022-08-18T20:56:32.359Z,8.70
2022-08-18T20:59:18.462Z,9.18
2022-08-18T21:01:54.388Z,9.23
2022-08-18T21:04:45.683Z,9.00
2022-08-18T21:07:17.789Z,8.65
2022-08-18T21:10:12.234Z,9.60
2022-08-18T21:12:52.021Z,9.23
2022-08-18T21:15:20.100Z,9.18
2022-08-18T21:18:00.934Z,9.60
2022-08-18T21:20:31.827Z,10.10
2022-08-18T21:23:16.730Z,10.73
2022-08-18T21:26:02.215Z,11.07
2022-08-18T21:28:36.304Z,10.25
2022-08-18T21:31:42.543Z,10.85
2022-08-18T21:34:18.577Z,10.57
2022-08-18T21:36:53.593Z,10.15
2022-08-18T21:39:23.277Z,11.55
2022-08-18T21:41:53.107Z,10.27
2022-08-18T21:44:41.561Z,11.15
2022-08-18T21:47:34.344Z,11.68
2022-08-18T21:50:23.126Z,10.73
2022-08-18T21:52:59.150Z,11.18
2022-08-18T21:55:34.129Z,11.07
2022-08-18T21:58:16.918Z,10.90
2022-08-18T22:01:19.185Z,10.68
2022-08-18T22:03:54.881Z,10.55
2022-08-18T22:06:27.360Z,9.77
2022-08-18T22:09:25.595Z,10.30
2022-08-18T22:12:30.799Z,10.10
2022-08-18T22:15:08.049Z,9.97
2022-08-18T22:17:44.909Z,9.82
2022-08-18T22:20:46.163Z,9.48
2022-08-18T22:23:34.551Z,10.32
2022-08-18T22:26:26.325Z,9.13
2022-08-18T22:29:13.485Z,9.45
2022-08-18T22:31:44.063Z,9.23
2022-08-18T22:34:17.446Z,9.18
2022-08-18T22:36:56.003Z,9.90
2022-08-18T22:39:36.346Z,8.85
2022-08-18T22:42:04.645Z,9.65
2022-08-18T22:44:31.879Z,9.30
2022-08-18T22:46:58.764Z,9.05
2022-08-18T22:49:26.190Z,8.98
2022-08-18T22:51:55.525Z,8.98
2022-08-18T22:54:24.035Z,8.48
2022-08-18T22:56:56.523Z,8.82
2022-08-18T22:59:26.746Z,8.98
2022-08-18T23:01:54.751Z,9.77
2022-08-18T23:04:23.579Z,9.18
2022-08-18T23:06:52.156Z,8.77
2022-08-18T23:09:31.046Z,9.10
2022-08-18T23:12:04.433Z,8.80
2022-08-18T23:14:32.465Z,9.00
2022-08-18T23:17:00.743Z,8.40
2022-08-18T23:19:31.899Z,8.13
2022-08-18T23:22:02.251Z,7.85
2022-08-18T23:24:31.646Z,7.60
2022-08-18T23:26:59.157Z,7.65
2022-08-18T23:29:26.881Z,8.00
2022-08-18T23:31:53.957Z,7.63
2022-08-18T23:34:23.032Z,7.90
2022-08-18T23:36:56.633Z,7.93
2022-08-18T23:39:28.975Z,8.02
2022-08-18T23:41:56.341Z,6.65
2022-08-18T23:44:27.584Z,7.63
2022-08-18T23:46:56.166Z,7.85
2022-08-18T23:49:23.357Z,7.32
2022-08-18T23:51:54.319Z,7.57
2022-08-18T23:54:24.446Z,7.47
2022-08-18T23:56:51.217Z,7.68
2022-08-18T23:59:19.960Z,7.50
